sensor_id;sensor_type;location;lat;lon;timestamp;temperature;humidity
25440;DHT22;13365;52.208;5.488;2022-12-18T00:00:41;2.60;91.60
25440;DHT22;13365;52.208;5.488;2022-12-18T00:03:07;2.30;91.50
25440;DHT22;13365;52.208;5.488;2022-12-18T00:05:33;2.30;91.70
25440;DHT22;13365;52.208;5.488;2022-12-18T00:07:58;2.50;91.70
25440;DHT22;13365;52.208;5.488;2022-12-18T00:10:24;2.40;91.40
25440;DHT22;13365;52.208;5.488;2022-12-18T00:12:49;2.60;91.60
25440;DHT22;13365;52.208;5.488;2022-12-18T00:15:15;2.60;91.60
25440;DHT22;13365;52.208;5.488;2022-12-18T00:17:41;2.70;91.50
25440;DHT22;13365;52.208;5.488;2022-12-18T00:20:07;2.80;91.40
25440;DHT22;13365;52.208;5.488;2022-12-18T00:22:32;2.80;91.30
25440;DHT22;13365;52.208;5.488;2022-12-18T00:24:58;2.80;91.20
25440;DHT22;13365;52.208;5.488;2022-12-18T00:27:23;2.70;91.20
25440;DHT22;13365;52.208;5.488;2022-12-18T00:29:49;2.60;91.40
25440;DHT22;13365;52.208;5.488;2022-12-18T00:32:14;2.60;91.40
25440;DHT22;13365;52.208;5.488;2022-12-18T00:34:40;2.60;91.40
25440;DHT22;13365;52.208;5.488;2022-12-18T00:37:05;2.80;91.50
25440;DHT22;13365;52.208;5.488;2022-12-18T00:39:31;2.70;91.10
25440;DHT22;13365;52.208;5.488;2022-12-18T00:41:56;2.40;91.20
25440;DHT22;13365;52.208;5.488;2022-12-18T00:44:40;2.30;91.60
25440;DHT22;13365;52.208;5.488;2022-12-18T00:47:06;2.50;91.60
25440;DHT22;13365;52.208;5.488;2022-12-18T00:49:31;2.60;91.40
25440;DHT22;13365;52.208;5.488;2022-12-18T00:51:57;2.80;91.20
25440;DHT22;13365;52.208;5.488;2022-12-18T00:54:23;2.70;91.00
25440;DHT22;13365;52.208;5.488;2022-12-18T00:56:49;2.70;90.90
25440;DHT22;13365;52.208;5.488;2022-12-18T00:59:15;2.60;91.10
25440;DHT22;13365;52.208;5.488;2022-12-18T01:01:41;2.60;91.20
25440;DHT22;13365;52.208;5.488;2022-12-18T01:04:06;2.50;91.10
25440;DHT22;13365;52.208;5.488;2022-12-18T01:06:32;2.50;91.30
25440;DHT22;13365;52.208;5.488;2022-12-18T01:08:57;2.60;91.30
25440;DHT22;13365;52.208;5.488;2022-12-18T01:11:24;2.60;91.20
25440;DHT22;13365;52.208;5.488;2022-12-18T01:13:49;2.60;91.10
25440;DHT22;13365;52.208;5.488;2022-12-18T01:16:17;2.60;90.90
25440;DHT22;13365;52.208;5.488;2022-12-18T01:18:43;2.60;90.90
25440;DHT22;13365;52.208;5.488;2022-12-18T01:21:12;2.40;91.10
25440;DHT22;13365;52.208;5.488;2022-12-18T01:23:37;2.40;91.40
25440;DHT22;13365;52.208;5.488;2022-12-18T01:26:14;2.40;91.40
25440;DHT22;13365;52.208;5.488;2022-12-18T01:28:41;2.40;91.40
25440;DHT22;13365;52.208;5.488;2022-12-18T01:31:23;2.50;91.40
25440;DHT22;13365;52.208;5.488;2022-12-18T01:33:50;2.50;91.50
25440;DHT22;13365;52.208;5.488;2022-12-18T01:36:19;2.50;91.40
25440;DHT22;13365;52.208;5.488;2022-12-18T01:38:46;2.50;91.30
25440;DHT22;13365;52.208;5.488;2022-12-18T01:41:12;2.30;91.40
25440;DHT22;13365;52.208;5.488;2022-12-18T01:43:53;2.40;91.60
25440;DHT22;13365;52.208;5.488;2022-12-18T01:46:21;2.30;91.50
25440;DHT22;13365;52.208;5.488;2022-12-18T01:48:56;2.40;91.30
25440;DHT22;13365;52.208;5.488;2022-12-18T01:51:22;2.40;91.10
25440;DHT22;13365;52.208;5.488;2022-12-18T01:53:48;2.20;91.20
25440;DHT22;13365;52.208;5.488;2022-12-18T01:56:19;2.30;91.20
25440;DHT22;13365;52.208;5.488;2022-12-18T01:59:06;2.40;91.00
25440;DHT22;13365;52.208;5.488;2022-12-18T02:01:33;2.30;90.90
25440;DHT22;13365;52.208;5.488;2022-12-18T02:04:34;2.30;90.90
25440;DHT22;13365;52.208;5.488;2022-12-18T02:12:42;2.40;90.10
25440;DHT22;13365;52.208;5.488;2022-12-18T02:17:59;2.50;89.10
25440;DHT22;13365;52.208;5.488;2022-12-18T02:20:49;2.40;88.80
25440;DHT22;13365;52.208;5.488;2022-12-18T02:23:47;2.50;88.90
25440;DHT22;13365;52.208;5.488;2022-12-18T02:29:06;2.40;88.00
25440;DHT22;13365;52.208;5.488;2022-12-18T02:31:43;2.30;87.80
25440;DHT22;13365;52.208;5.488;2022-12-18T02:34:10;2.30;87.70
25440;DHT22;13365;52.208;5.488;2022-12-18T02:36:40;2.30;87.20
25440;DHT22;13365;52.208;5.488;2022-12-18T02:39:07;2.40;87.20
25440;DHT22;13365;52.208;5.488;2022-12-18T02:41:34;2.40;86.70
25440;DHT22;13365;52.208;5.488;2022-12-18T02:44:07;2.30;86.50
25440;DHT22;13365;52.208;5.488;2022-12-18T02:46:35;2.30;86.20
25440;DHT22;13365;52.208;5.488;2022-12-18T02:49:22;2.30;86.00
25440;DHT22;13365;52.208;5.488;2022-12-18T02:52:02;2.20;85.80
25440;DHT22;13365;52.208;5.488;2022-12-18T02:54:54;2.10;86.10
25440;DHT22;13365;52.208;5.488;2022-12-18T02:57:37;2.10;85.40
25440;DHT22;13365;52.208;5.488;2022-12-18T03:02:59;1.90;85.00
25440;DHT22;13365;52.208;5.488;2022-12-18T03:05:33;1.90;85.80
25440;DHT22;13365;52.208;5.488;2022-12-18T03:08:08;2.00;85.00
25440;DHT22;13365;52.208;5.488;2022-12-18T03:10:39;2.00;84.80
25440;DHT22;13365;52.208;5.488;2022-12-18T03:13:10;1.90;84.70
25440;DHT22;13365;52.208;5.488;2022-12-18T03:15:51;1.90;84.60
25440;DHT22;13365;52.208;5.488;2022-12-18T03:18:24;1.90;84.30
25440;DHT22;13365;52.208;5.488;2022-12-18T03:20:51;1.80;84.10
25440;DHT22;13365;52.208;5.488;2022-12-18T03:23:22;1.70;84.00
25440;DHT22;13365;52.208;5.488;2022-12-18T03:25:50;1.70;84.80
25440;DHT22;13365;52.208;5.488;2022-12-18T03:28:21;1.70;84.00
25440;DHT22;13365;52.208;5.488;2022-12-18T03:30:55;1.70;84.10
25440;DHT22;13365;52.208;5.488;2022-12-18T03:33:29;1.60;83.80
25440;DHT22;13365;52.208;5.488;2022-12-18T03:35:55;1.60;83.80
25440;DHT22;13365;52.208;5.488;2022-12-18T03:38:21;1.50;83.70
25440;DHT22;13365;52.208;5.488;2022-12-18T03:40:59;1.60;83.80
25440;DHT22;13365;52.208;5.488;2022-12-18T03:43:50;1.60;83.70
25440;DHT22;13365;52.208;5.488;2022-12-18T03:46:29;1.50;83.50
25440;DHT22;13365;52.208;5.488;2022-12-18T03:49:25;1.50;83.30
25440;DHT22;13365;52.208;5.488;2022-12-18T03:52:01;1.40;83.20
25440;DHT22;13365;52.208;5.488;2022-12-18T03:54:29;1.30;83.10
25440;DHT22;13365;52.208;5.488;2022-12-18T03:56:59;1.30;83.20
25440;DHT22;13365;52.208;5.488;2022-12-18T03:59:26;1.30;83.30
25440;DHT22;13365;52.208;5.488;2022-12-18T04:01:54;1.30;83.20
25440;DHT22;13365;52.208;5.488;2022-12-18T04:04:21;1.20;82.90
25440;DHT22;13365;52.208;5.488;2022-12-18T04:06:49;1.20;82.90
25440;DHT22;13365;52.208;5.488;2022-12-18T04:09:15;1.10;82.90
25440;DHT22;13365;52.208;5.488;2022-12-18T04:11:41;1.20;83.00
25440;DHT22;13365;52.208;5.488;2022-12-18T04:14:09;1.20;83.00
25440;DHT22;13365;52.208;5.488;2022-12-18T04:16:35;1.10;82.60
25440;DHT22;13365;52.208;5.488;2022-12-18T04:19:00;1.00;82.60
25440;DHT22;13365;52.208;5.488;2022-12-18T04:21:26;1.10;83.00
25440;DHT22;13365;52.208;5.488;2022-12-18T04:23:51;1.10;82.80
25440;DHT22;13365;52.208;5.488;2022-12-18T04:26:17;1.10;82.80
25440;DHT22;13365;52.208;5.488;2022-12-18T04:28:42;1.00;82.60
25440;DHT22;13365;52.208;5.488;2022-12-18T04:31:08;1.10;82.80
25440;DHT22;13365;52.208;5.488;2022-12-18T04:33:33;1.00;82.70
25440;DHT22;13365;52.208;5.488;2022-12-18T04:35:59;1.00;82.70
25440;DHT22;13365;52.208;5.488;2022-12-18T04:38:25;1.00;83.10
25440;DHT22;13365;52.208;5.488;2022-12-18T04:40:50;1.00;83.30
25440;DHT22;13365;52.208;5.488;2022-12-18T04:43:15;1.00;83.40
25440;DHT22;13365;52.208;5.488;2022-12-18T04:45:41;0.90;83.30
25440;DHT22;13365;52.208;5.488;2022-12-18T04:48:07;0.90;83.80
25440;DHT22;13365;52.208;5.488;2022-12-18T04:50:32;0.90;83.80
25440;DHT22;13365;52.208;5.488;2022-12-18T04:52:58;0.90;83.90
25440;DHT22;13365;52.208;5.488;2022-12-18T04:55:23;0.80;83.60
25440;DHT22;13365;52.208;5.488;2022-12-18T04:57:52;0.80;83.50
25440;DHT22;13365;52.208;5.488;2022-12-18T05:00:18;0.80;83.60
25440;DHT22;13365;52.208;5.488;2022-12-18T05:02:44;0.80;83.80
25440;DHT22;13365;52.208;5.488;2022-12-18T05:05:09;0.80;83.90
25440;DHT22;13365;52.208;5.488;2022-12-18T05:07:35;0.70;83.70
25440;DHT22;13365;52.208;5.488;2022-12-18T05:10:01;0.90;84.00
25440;DHT22;13365;52.208;5.488;2022-12-18T05:12:26;0.70;83.50
25440;DHT22;13365;52.208;5.488;2022-12-18T05:14:52;0.70;83.50
25440;DHT22;13365;52.208;5.488;2022-12-18T05:17:18;0.80;83.40
25440;DHT22;13365;52.208;5.488;2022-12-18T05:19:43;0.80;83.30
25440;DHT22;13365;52.208;5.488;2022-12-18T05:22:09;0.80;83.30
25440;DHT22;13365;52.208;5.488;2022-12-18T05:24:34;0.70;83.10
25440;DHT22;13365;52.208;5.488;2022-12-18T05:27:00;0.80;83.20
25440;DHT22;13365;52.208;5.488;2022-12-18T05:29:25;0.70;82.90
25440;DHT22;13365;52.208;5.488;2022-12-18T05:31:51;0.70;82.60
25440;DHT22;13365;52.208;5.488;2022-12-18T05:34:17;0.60;82.50
25440;DHT22;13365;52.208;5.488;2022-12-18T05:36:42;0.70;82.40
25440;DHT22;13365;52.208;5.488;2022-12-18T05:39:09;0.70;82.30
25440;DHT22;13365;52.208;5.488;2022-12-18T05:41:34;0.70;82.00
25440;DHT22;13365;52.208;5.488;2022-12-18T05:44:00;0.60;81.70
25440;DHT22;13365;52.208;5.488;2022-12-18T05:46:26;0.60;81.60
25440;DHT22;13365;52.208;5.488;2022-12-18T05:48:51;0.60;81.60
25440;DHT22;13365;52.208;5.488;2022-12-18T05:51:19;0.60;81.50
25440;DHT22;13365;52.208;5.488;2022-12-18T05:53:45;0.50;81.50
25440;DHT22;13365;52.208;5.488;2022-12-18T05:56:14;0.60;81.50
25440;DHT22;13365;52.208;5.488;2022-12-18T05:58:40;0.50;81.30
25440;DHT22;13365;52.208;5.488;2022-12-18T06:01:08;0.50;81.40
25440;DHT22;13365;52.208;5.488;2022-12-18T06:03:34;0.40;81.30
25440;DHT22;13365;52.208;5.488;2022-12-18T06:06:00;0.40;81.30
25440;DHT22;13365;52.208;5.488;2022-12-18T06:08:25;0.40;81.20
25440;DHT22;13365;52.208;5.488;2022-12-18T06:10:52;0.30;81.10
25440;DHT22;13365;52.208;5.488;2022-12-18T06:13:19;0.40;81.20
25440;DHT22;13365;52.208;5.488;2022-12-18T06:15:44;0.30;81.20
25440;DHT22;13365;52.208;5.488;2022-12-18T06:18:10;0.30;81.30
25440;DHT22;13365;52.208;5.488;2022-12-18T06:20:35;0.30;81.30
25440;DHT22;13365;52.208;5.488;2022-12-18T06:23:02;0.30;81.30
25440;DHT22;13365;52.208;5.488;2022-12-18T06:25:28;0.30;81.30
25440;DHT22;13365;52.208;5.488;2022-12-18T06:27:53;0.20;81.20
25440;DHT22;13365;52.208;5.488;2022-12-18T06:30:19;0.20;81.20
25440;DHT22;13365;52.208;5.488;2022-12-18T06:32:45;0.10;81.00
25440;DHT22;13365;52.208;5.488;2022-12-18T06:35:10;0.00;81.00
25440;DHT22;13365;52.208;5.488;2022-12-18T06:37:36;0.10;81.40
25440;DHT22;13365;52.208;5.488;2022-12-18T06:40:02;0.20;81.40
25440;DHT22;13365;52.208;5.488;2022-12-18T06:42:28;0.20;81.30
25440;DHT22;13365;52.208;5.488;2022-12-18T06:44:54;0.20;81.20
25440;DHT22;13365;52.208;5.488;2022-12-18T06:47:19;0.20;81.10
25440;DHT22;13365;52.208;5.488;2022-12-18T06:49:45;0.10;81.00
25440;DHT22;13365;52.208;5.488;2022-12-18T06:52:10;0.00;81.10
25440;DHT22;13365;52.208;5.488;2022-12-18T06:54:36;0.00;81.40
25440;DHT22;13365;52.208;5.488;2022-12-18T06:57:02;0.10;81.70
25440;DHT22;13365;52.208;5.488;2022-12-18T06:59:27;0.10;81.70
25440;DHT22;13365;52.208;5.488;2022-12-18T07:01:53;0.10;81.50
25440;DHT22;13365;52.208;5.488;2022-12-18T07:04:18;0.10;81.60
25440;DHT22;13365;52.208;5.488;2022-12-18T07:06:44;0.10;81.90
25440;DHT22;13365;52.208;5.488;2022-12-18T07:09:09;0.20;82.10
25440;DHT22;13365;52.208;5.488;2022-12-18T07:11:35;0.30;82.30
25440;DHT22;13365;52.208;5.488;2022-12-18T07:14:00;0.20;82.00
25440;DHT22;13365;52.208;5.488;2022-12-18T07:16:27;0.10;82.10
25440;DHT22;13365;52.208;5.488;2022-12-18T07:18:56;0.20;82.50
25440;DHT22;13365;52.208;5.488;2022-12-18T07:21:22;0.30;82.70
25440;DHT22;13365;52.208;5.488;2022-12-18T07:23:48;0.30;82.80
25440;DHT22;13365;52.208;5.488;2022-12-18T07:26:16;0.30;82.70
25440;DHT22;13365;52.208;5.488;2022-12-18T07:28:42;0.20;82.70
25440;DHT22;13365;52.208;5.488;2022-12-18T07:31:10;0.20;82.70
25440;DHT22;13365;52.208;5.488;2022-12-18T07:33:36;0.30;82.80
25440;DHT22;13365;52.208;5.488;2022-12-18T07:36:03;0.20;82.70
25440;DHT22;13365;52.208;5.488;2022-12-18T07:38:30;0.30;83.00
25440;DHT22;13365;52.208;5.488;2022-12-18T07:41:03;0.30;83.20
25440;DHT22;13365;52.208;5.488;2022-12-18T07:43:29;0.20;84.30
25440;DHT22;13365;52.208;5.488;2022-12-18T07:45:55;0.20;83.90
25440;DHT22;13365;52.208;5.488;2022-12-18T07:48:21;0.30;84.10
25440;DHT22;13365;52.208;5.488;2022-12-18T07:50:46;0.30;84.00
25440;DHT22;13365;52.208;5.488;2022-12-18T07:53:12;0.40;84.30
25440;DHT22;13365;52.208;5.488;2022-12-18T07:55:37;0.50;84.40
25440;DHT22;13365;52.208;5.488;2022-12-18T07:58:04;0.50;84.50
25440;DHT22;13365;52.208;5.488;2022-12-18T08:00:30;0.60;85.10
25440;DHT22;13365;52.208;5.488;2022-12-18T08:02:56;0.60;85.60
25440;DHT22;13365;52.208;5.488;2022-12-18T08:05:22;0.60;85.80
25440;DHT22;13365;52.208;5.488;2022-12-18T08:07:48;0.60;86.20
25440;DHT22;13365;52.208;5.488;2022-12-18T08:10:13;0.80;86.30
25440;DHT22;13365;52.208;5.488;2022-12-18T08:12:39;0.70;86.70
25440;DHT22;13365;52.208;5.488;2022-12-18T08:15:05;0.70;87.30
25440;DHT22;13365;52.208;5.488;2022-12-18T08:17:31;0.80;87.80
25440;DHT22;13365;52.208;5.488;2022-12-18T08:19:56;0.90;88.00
25440;DHT22;13365;52.208;5.488;2022-12-18T08:22:22;1.10;88.40
25440;DHT22;13365;52.208;5.488;2022-12-18T08:24:47;1.10;88.60
25440;DHT22;13365;52.208;5.488;2022-12-18T08:27:13;1.20;88.70
25440;DHT22;13365;52.208;5.488;2022-12-18T08:29:38;1.40;88.70
25440;DHT22;13365;52.208;5.488;2022-12-18T08:32:04;1.50;88.40
25440;DHT22;13365;52.208;5.488;2022-12-18T08:34:30;1.50;88.50
25440;DHT22;13365;52.208;5.488;2022-12-18T08:36:55;1.30;88.40
25440;DHT22;13365;52.208;5.488;2022-12-18T08:39:21;1.60;89.20
25440;DHT22;13365;52.208;5.488;2022-12-18T08:41:46;1.70;88.70
25440;DHT22;13365;52.208;5.488;2022-12-18T08:44:32;1.80;88.60
25440;DHT22;13365;52.208;5.488;2022-12-18T08:47:04;1.90;88.50
25440;DHT22;13365;52.208;5.488;2022-12-18T08:49:30;2.00;88.00
25440;DHT22;13365;52.208;5.488;2022-12-18T08:51:56;2.20;87.80
25440;DHT22;13365;52.208;5.488;2022-12-18T08:54:26;2.10;87.50
25440;DHT22;13365;52.208;5.488;2022-12-18T08:56:51;2.30;87.70
25440;DHT22;13365;52.208;5.488;2022-12-18T08:59:18;2.30;87.20
25440;DHT22;13365;52.208;5.488;2022-12-18T09:01:44;2.30;87.20
25440;DHT22;13365;52.208;5.488;2022-12-18T09:04:10;2.40;87.30
25440;DHT22;13365;52.208;5.488;2022-12-18T09:06:36;2.50;88.20
25440;DHT22;13365;52.208;5.488;2022-12-18T09:09:03;2.40;87.30
25440;DHT22;13365;52.208;5.488;2022-12-18T09:11:29;2.40;87.80
25440;DHT22;13365;52.208;5.488;2022-12-18T09:13:55;2.60;88.10
25440;DHT22;13365;52.208;5.488;2022-12-18T09:16:22;2.70;88.00
25440;DHT22;13365;52.208;5.488;2022-12-18T09:18:49;3.00;87.90
25440;DHT22;13365;52.208;5.488;2022-12-18T09:21:17;2.90;87.40
25440;DHT22;13365;52.208;5.488;2022-12-18T09:23:43;3.10;87.70
25440;DHT22;13365;52.208;5.488;2022-12-18T09:26:09;3.20;87.80
25440;DHT22;13365;52.208;5.488;2022-12-18T09:28:35;3.30;87.90
25440;DHT22;13365;52.208;5.488;2022-12-18T09:31:07;3.30;87.60
25440;DHT22;13365;52.208;5.488;2022-12-18T09:33:34;3.50;88.00
25440;DHT22;13365;52.208;5.488;2022-12-18T09:36:02;3.40;87.70
25440;DHT22;13365;52.208;5.488;2022-12-18T09:38:28;3.60;87.70
25440;DHT22;13365;52.208;5.488;2022-12-18T09:40:58;3.70;87.20
25440;DHT22;13365;52.208;5.488;2022-12-18T09:43:29;3.50;87.20
25440;DHT22;13365;52.208;5.488;2022-12-18T09:46:00;3.50;87.60
25440;DHT22;13365;52.208;5.488;2022-12-18T09:48:34;3.60;87.80
25440;DHT22;13365;52.208;5.488;2022-12-18T09:51:04;3.60;87.50
25440;DHT22;13365;52.208;5.488;2022-12-18T09:53:34;3.70;88.10
25440;DHT22;13365;52.208;5.488;2022-12-18T09:56:01;3.90;88.00
25440;DHT22;13365;52.208;5.488;2022-12-18T09:58:33;3.80;87.80
25440;DHT22;13365;52.208;5.488;2022-12-18T10:01:01;3.80;88.40
25440;DHT22;13365;52.208;5.488;2022-12-18T10:03:26;3.70;88.40
25440;DHT22;13365;52.208;5.488;2022-12-18T10:06:02;4.10;88.80
25440;DHT22;13365;52.208;5.488;2022-12-18T10:08:43;4.10;87.90
25440;DHT22;13365;52.208;5.488;2022-12-18T10:19:41;4.30;87.40
25440;DHT22;13365;52.208;5.488;2022-12-18T10:22:29;4.30;87.50
25440;DHT22;13365;52.208;5.488;2022-12-18T10:27:46;4.50;87.30
25440;DHT22;13365;52.208;5.488;2022-12-18T10:30:14;4.40;87.40
25440;DHT22;13365;52.208;5.488;2022-12-18T10:32:40;4.40;87.90
25440;DHT22;13365;52.208;5.488;2022-12-18T10:35:15;4.60;87.90
25440;DHT22;13365;52.208;5.488;2022-12-18T10:40:56;4.70;87.10
25440;DHT22;13365;52.208;5.488;2022-12-18T10:43:34;4.80;86.90
25440;DHT22;13365;52.208;5.488;2022-12-18T10:51:34;5.00;86.30
25440;DHT22;13365;52.208;5.488;2022-12-18T10:54:06;5.00;86.30
25440;DHT22;13365;52.208;5.488;2022-12-18T10:56:38;5.10;85.70
25440;DHT22;13365;52.208;5.488;2022-12-18T10:59:05;5.20;85.00
25440;DHT22;13365;52.208;5.488;2022-12-18T11:01:53;5.10;85.30
25440;DHT22;13365;52.208;5.488;2022-12-18T11:04:27;5.10;85.20
25440;DHT22;13365;52.208;5.488;2022-12-18T11:07:05;5.00;84.80
25440;DHT22;13365;52.208;5.488;2022-12-18T11:09:32;5.10;84.60
25440;DHT22;13365;52.208;5.488;2022-12-18T11:12:13;5.30;85.00
25440;DHT22;13365;52.208;5.488;2022-12-18T11:14:44;5.20;83.80
25440;DHT22;13365;52.208;5.488;2022-12-18T11:17:31;5.10;83.70
25440;DHT22;13365;52.208;5.488;2022-12-18T11:20:03;5.10;85.00
25440;DHT22;13365;52.208;5.488;2022-12-18T11:22:30;5.10;84.00
25440;DHT22;13365;52.208;5.488;2022-12-18T11:25:19;5.10;83.70
25440;DHT22;13365;52.208;5.488;2022-12-18T11:33:38;5.10;83.80
25440;DHT22;13365;52.208;5.488;2022-12-18T11:36:08;5.00;83.70
25440;DHT22;13365;52.208;5.488;2022-12-18T11:38:37;5.10;84.20
25440;DHT22;13365;52.208;5.488;2022-12-18T11:44:13;5.20;83.10
25440;DHT22;13365;52.208;5.488;2022-12-18T11:46:47;5.20;83.40
25440;DHT22;13365;52.208;5.488;2022-12-18T11:49:20;5.20;84.00
25440;DHT22;13365;52.208;5.488;2022-12-18T11:52:04;5.50;83.20
25440;DHT22;13365;52.208;5.488;2022-12-18T11:54:35;5.70;82.30
25440;DHT22;13365;52.208;5.488;2022-12-18T11:57:07;5.70;81.90
25440;DHT22;13365;52.208;5.488;2022-12-18T12:15:53;6.10;80.20
25440;DHT22;13365;52.208;5.488;2022-12-18T12:18:31;5.90;79.90
25440;DHT22;13365;52.208;5.488;2022-12-18T12:21:17;5.90;80.10
25440;DHT22;13365;52.208;5.488;2022-12-18T12:26:58;6.00;80.30
25440;DHT22;13365;52.208;5.488;2022-12-18T12:32:36;6.00;79.70
25440;DHT22;13365;52.208;5.488;2022-12-18T12:35:29;6.10;80.10
25440;DHT22;13365;52.208;5.488;2022-12-18T12:40:51;6.10;79.40
25440;DHT22;13365;52.208;5.488;2022-12-18T12:43:21;6.00;80.30
25440;DHT22;13365;52.208;5.488;2022-12-18T12:45:53;6.10;79.80
25440;DHT22;13365;52.208;5.488;2022-12-18T12:49:01;6.10;79.50
25440;DHT22;13365;52.208;5.488;2022-12-18T12:51:41;6.10;79.60
25440;DHT22;13365;52.208;5.488;2022-12-18T12:54:21;6.20;79.70
25440;DHT22;13365;52.208;5.488;2022-12-18T12:56:55;6.30;79.30
25440;DHT22;13365;52.208;5.488;2022-12-18T12:59:30;6.30;78.70
25440;DHT22;13365;52.208;5.488;2022-12-18T13:02:03;6.20;78.70
25440;DHT22;13365;52.208;5.488;2022-12-18T13:15:29;6.40;78.80
25440;DHT22;13365;52.208;5.488;2022-12-18T13:23:25;6.60;77.90
25440;DHT22;13365;52.208;5.488;2022-12-18T13:25:55;6.50;78.20
25440;DHT22;13365;52.208;5.488;2022-12-18T13:30:59;6.40;78.60
25440;DHT22;13365;52.208;5.488;2022-12-18T13:38:33;6.50;78.20
25440;DHT22;13365;52.208;5.488;2022-12-18T13:49:15;6.50;78.20
25440;DHT22;13365;52.208;5.488;2022-12-18T13:51:47;6.50;77.80
25440;DHT22;13365;52.208;5.488;2022-12-18T13:54:27;6.30;77.70
25440;DHT22;13365;52.208;5.488;2022-12-18T13:56:57;6.30;78.40
25440;DHT22;13365;52.208;5.488;2022-12-18T13:59:33;6.60;78.10
25440;DHT22;13365;52.208;5.488;2022-12-18T14:02:01;6.20;77.50
25440;DHT22;13365;52.208;5.488;2022-12-18T14:04:33;6.40;78.10
25440;DHT22;13365;52.208;5.488;2022-12-18T14:07:18;6.40;77.90
25440;DHT22;13365;52.208;5.488;2022-12-18T14:09:46;6.50;77.60
25440;DHT22;13365;52.208;5.488;2022-12-18T14:12:22;6.40;77.60
25440;DHT22;13365;52.208;5.488;2022-12-18T14:20:47;6.30;78.00
25440;DHT22;13365;52.208;5.488;2022-12-18T14:23:34;6.30;78.10
25440;DHT22;13365;52.208;5.488;2022-12-18T14:26:01;6.30;77.80
25440;DHT22;13365;52.208;5.488;2022-12-18T14:28:27;6.50;78.00
25440;DHT22;13365;52.208;5.488;2022-12-18T14:30:53;6.50;77.20
25440;DHT22;13365;52.208;5.488;2022-12-18T14:33:29;6.50;76.90
25440;DHT22;13365;52.208;5.488;2022-12-18T14:35:58;6.50;77.30
25440;DHT22;13365;52.208;5.488;2022-12-18T14:43:26;6.50;77.60
25440;DHT22;13365;52.208;5.488;2022-12-18T14:45:52;6.60;77.10
25440;DHT22;13365;52.208;5.488;2022-12-18T14:48:19;6.60;77.00
25440;DHT22;13365;52.208;5.488;2022-12-18T14:50:58;6.50;77.00
25440;DHT22;13365;52.208;5.488;2022-12-18T14:53:34;6.40;77.30
25440;DHT22;13365;52.208;5.488;2022-12-18T14:56:01;6.30;76.90
25440;DHT22;13365;52.208;5.488;2022-12-18T14:58:27;6.30;77.30
25440;DHT22;13365;52.208;5.488;2022-12-18T15:00:53;6.30;77.30
25440;DHT22;13365;52.208;5.488;2022-12-18T15:03:20;6.10;77.60
25440;DHT22;13365;52.208;5.488;2022-12-18T15:05:47;6.00;77.50
25440;DHT22;13365;52.208;5.488;2022-12-18T15:08:32;5.70;78.10
25440;DHT22;13365;52.208;5.488;2022-12-18T15:10:59;5.70;78.80
25440;DHT22;13365;52.208;5.488;2022-12-18T15:13:25;5.70;78.80
25440;DHT22;13365;52.208;5.488;2022-12-18T15:15:52;5.90;79.00
25440;DHT22;13365;52.208;5.488;2022-12-18T15:18:20;5.80;78.70
25440;DHT22;13365;52.208;5.488;2022-12-18T15:20:57;5.80;78.40
25440;DHT22;13365;52.208;5.488;2022-12-18T15:23:49;5.90;78.00
25440;DHT22;13365;52.208;5.488;2022-12-18T15:26:17;5.90;78.00
25440;DHT22;13365;52.208;5.488;2022-12-18T15:33:45;5.80;78.40
25440;DHT22;13365;52.208;5.488;2022-12-18T15:36:13;5.90;78.10
25440;DHT22;13365;52.208;5.488;2022-12-18T15:38:39;6.00;78.30
25440;DHT22;13365;52.208;5.488;2022-12-18T15:41:13;6.00;77.40
25440;DHT22;13365;52.208;5.488;2022-12-18T15:43:39;5.80;77.60
25440;DHT22;13365;52.208;5.488;2022-12-18T15:46:14;5.80;78.00
25440;DHT22;13365;52.208;5.488;2022-12-18T15:48:41;5.70;78.40
25440;DHT22;13365;52.208;5.488;2022-12-18T15:51:16;5.90;78.20
25440;DHT22;13365;52.208;5.488;2022-12-18T15:53:42;5.90;77.60
25440;DHT22;13365;52.208;5.488;2022-12-18T15:56:11;5.90;77.60
25440;DHT22;13365;52.208;5.488;2022-12-18T15:58:56;5.90;77.40
25440;DHT22;13365;52.208;5.488;2022-12-18T16:01:24;5.80;77.70
25440;DHT22;13365;52.208;5.488;2022-12-18T16:03:50;5.80;78.30
25440;DHT22;13365;52.208;5.488;2022-12-18T16:06:16;5.80;78.00
25440;DHT22;13365;52.208;5.488;2022-12-18T16:08:41;5.70;78.20
25440;DHT22;13365;52.208;5.488;2022-12-18T16:11:23;5.60;78.50
25440;DHT22;13365;52.208;5.488;2022-12-18T16:14:22;5.60;78.80
25440;DHT22;13365;52.208;5.488;2022-12-18T16:16:51;5.50;79.40
25440;DHT22;13365;52.208;5.488;2022-12-18T16:19:18;5.50;79.30
25440;DHT22;13365;52.208;5.488;2022-12-18T16:21:45;5.30;79.30
25440;DHT22;13365;52.208;5.488;2022-12-18T16:24:18;5.30;79.60
25440;DHT22;13365;52.208;5.488;2022-12-18T16:26:45;5.40;79.90
25440;DHT22;13365;52.208;5.488;2022-12-18T16:29:11;5.40;79.60
25440;DHT22;13365;52.208;5.488;2022-12-18T16:31:36;5.40;79.50
25440;DHT22;13365;52.208;5.488;2022-12-18T16:34:12;5.40;79.70
25440;DHT22;13365;52.208;5.488;2022-12-18T16:36:38;5.50;79.60
25440;DHT22;13365;52.208;5.488;2022-12-18T16:39:04;5.40;79.20
25440;DHT22;13365;52.208;5.488;2022-12-18T16:41:29;5.40;79.90
25440;DHT22;13365;52.208;5.488;2022-12-18T16:44:02;5.50;79.80
25440;DHT22;13365;52.208;5.488;2022-12-18T16:46:27;5.40;79.40
25440;DHT22;13365;52.208;5.488;2022-12-18T16:48:53;5.30;79.50
25440;DHT22;13365;52.208;5.488;2022-12-18T16:51:18;5.30;79.70
25440;DHT22;13365;52.208;5.488;2022-12-18T16:53:44;5.50;79.70
25440;DHT22;13365;52.208;5.488;2022-12-18T16:56:09;5.50;79.40
25440;DHT22;13365;52.208;5.488;2022-12-18T16:58:35;5.30;78.90
25440;DHT22;13365;52.208;5.488;2022-12-18T17:01:01;5.50;79.40
25440;DHT22;13365;52.208;5.488;2022-12-18T17:03:26;5.30;79.30
25440;DHT22;13365;52.208;5.488;2022-12-18T17:05:53;5.20;79.50
25440;DHT22;13365;52.208;5.488;2022-12-18T17:08:18;5.10;80.10
25440;DHT22;13365;52.208;5.488;2022-12-18T17:10:44;5.00;80.30
25440;DHT22;13365;52.208;5.488;2022-12-18T17:13:09;5.00;80.50
25440;DHT22;13365;52.208;5.488;2022-12-18T17:15:35;4.90;80.60
25440;DHT22;13365;52.208;5.488;2022-12-18T17:18:01;4.90;81.20
25440;DHT22;13365;52.208;5.488;2022-12-18T17:20:27;4.90;81.40
25440;DHT22;13365;52.208;5.488;2022-12-18T17:22:52;5.10;81.00
25440;DHT22;13365;52.208;5.488;2022-12-18T17:25:18;5.00;80.70
25440;DHT22;13365;52.208;5.488;2022-12-18T17:27:43;4.90;80.80
25440;DHT22;13365;52.208;5.488;2022-12-18T17:30:09;4.90;80.70
25440;DHT22;13365;52.208;5.488;2022-12-18T17:32:35;4.70;80.80
25440;DHT22;13365;52.208;5.488;2022-12-18T17:35:01;4.80;82.00
25440;DHT22;13365;52.208;5.488;2022-12-18T17:37:27;5.00;81.90
25440;DHT22;13365;52.208;5.488;2022-12-18T17:39:52;5.00;81.30
25440;DHT22;13365;52.208;5.488;2022-12-18T17:42:18;5.10;80.60
25440;DHT22;13365;52.208;5.488;2022-12-18T17:44:44;5.10;80.80
25440;DHT22;13365;52.208;5.488;2022-12-18T17:47:10;5.10;80.70
25440;DHT22;13365;52.208;5.488;2022-12-18T17:49:36;5.30;80.90
25440;DHT22;13365;52.208;5.488;2022-12-18T17:52:02;5.20;80.50
25440;DHT22;13365;52.208;5.488;2022-12-18T17:54:28;5.20;80.20